createdAt,value
2023-04-19T00:01:32.679Z,10.50
2023-04-19T00:03:59.649Z,10.50
2023-04-19T00:06:30.361Z,10.60
2023-04-19T00:08:57.630Z,10.60
2023-04-19T00:11:24.937Z,10.60
2023-04-19T00:13:51.790Z,10.60
2023-04-19T00:16:18.646Z,10.70
2023-04-19T00:18:46.805Z,10.70
2023-04-19T00:21:13.654Z,10.70
2023-04-19T00:23:40.589Z,10.80
2023-04-19T00:26:07.353Z,10.80
2023-04-19T00:28:35.086Z,10.80
2023-04-19T00:31:02.023Z,10.80
2023-04-19T00:33:28.833Z,10.80
2023-04-19T00:35:55.549Z,10.90
2023-04-19T00:38:22.288Z,10.90
2023-04-19T00:40:49.008Z,10.90
2023-04-19T00:43:22.262Z,10.90
2023-04-19T00:45:49.856Z,11.00
2023-04-19T00:48:17.198Z,11.00
2023-04-19T00:50:45.424Z,11.00
2023-04-19T00:53:12.461Z,11.00
2023-04-19T00:55:39.745Z,11.00
2023-04-19T00:58:07.676Z,11.00
2023-04-19T01:00:35.000Z,11.00
2023-04-19T01:03:01.852Z,11.00
2023-04-19T01:05:28.724Z,11.00
2023-04-19T01:07:55.458Z,11.00
2023-04-19T01:10:22.257Z,11.00
2023-04-19T01:12:49.008Z,11.00
2023-04-19T01:15:15.821Z,11.00
2023-04-19T01:17:42.941Z,11.00
2023-04-19T01:20:10.699Z,10.90
2023-04-19T01:22:40.287Z,11.00
2023-04-19T01:25:07.624Z,11.00
2023-04-19T01:27:34.770Z,11.00
2023-04-19T01:30:01.566Z,11.00
2023-04-19T01:32:28.416Z,11.00
2023-04-19T01:34:55.334Z,11.00
2023-04-19T01:37:22.334Z,11.00
2023-04-19T01:39:49.330Z,11.00
2023-04-19T01:42:16.181Z,11.00
2023-04-19T01:44:42.972Z,11.00
2023-04-19T01:47:09.854Z,11.00
2023-04-19T01:49:36.778Z,11.00
2023-04-19T01:52:03.693Z,11.00
2023-04-19T01:54:30.537Z,11.00
2023-04-19T01:56:57.377Z,11.00
2023-04-19T01:59:24.340Z,10.90
2023-04-19T02:01:51.125Z,10.90
2023-04-19T02:04:20.584Z,11.00
2023-04-19T02:06:47.403Z,10.90
2023-04-19T02:09:14.170Z,10.90
2023-04-19T02:11:41.007Z,11.00
2023-04-19T02:14:07.687Z,10.90
2023-04-19T02:16:35.999Z,10.90
2023-04-19T02:19:03.431Z,10.90
2023-04-19T02:21:30.174Z,10.90
2023-04-19T02:23:56.952Z,10.90
2023-04-19T02:26:24.710Z,10.90
2023-04-19T02:28:52.947Z,10.90
2023-04-19T02:31:19.885Z,10.90
2023-04-19T02:33:46.902Z,10.90
2023-04-19T02:36:13.643Z,10.90
2023-04-19T02:38:40.814Z,10.80
2023-04-19T02:41:07.737Z,10.80
2023-04-19T02:43:34.500Z,10.80
2023-04-19T02:46:01.846Z,10.80
2023-04-19T02:48:28.810Z,10.70
2023-04-19T02:50:55.659Z,10.70
2023-04-19T02:53:22.638Z,10.70
2023-04-19T02:55:49.678Z,10.80
2023-04-19T02:58:16.480Z,10.80
2023-04-19T03:00:43.254Z,10.80
2023-04-19T03:03:10.276Z,10.80
2023-04-19T03:05:37.257Z,10.70
2023-04-19T03:08:04.213Z,10.80
2023-04-19T03:10:31.035Z,10.80
2023-04-19T03:12:57.790Z,10.80
2023-04-19T03:15:24.565Z,10.80
2023-04-19T03:17:51.339Z,10.70
2023-04-19T03:20:18.256Z,10.70
2023-04-19T03:22:45.429Z,10.70
2023-04-19T03:25:15.034Z,10.80
2023-04-19T03:27:41.865Z,10.70
2023-04-19T03:30:09.386Z,10.70
2023-04-19T03:32:36.414Z,10.70
2023-04-19T03:35:03.630Z,10.70
2023-04-19T03:37:30.448Z,10.70
2023-04-19T03:39:57.365Z,10.70
2023-04-19T03:42:24.088Z,10.70
2023-04-19T03:44:50.814Z,10.70
2023-04-19T03:47:17.553Z,10.70
2023-04-19T03:49:44.397Z,10.70
2023-04-19T03:52:11.151Z,10.60
2023-04-19T03:54:37.948Z,10.60
2023-04-19T03:57:04.740Z,10.70
2023-04-19T03:59:31.992Z,10.60
2023-04-19T04:01:59.017Z,10.60
2023-04-19T04:04:26.050Z,10.60
2023-04-19T04:06:52.897Z,10.60
2023-04-19T04:09:19.749Z,10.60
2023-04-19T04:11:46.522Z,10.60
2023-04-19T04:14:16.965Z,10.60
2023-04-19T04:16:44.112Z,10.60
2023-04-19T04:19:11.087Z,10.60
2023-04-19T04:21:37.845Z,10.60
2023-04-19T04:24:05.321Z,10.60
2023-04-19T04:26:33.924Z,10.70
2023-04-19T04:29:01.918Z,10.70
2023-04-19T04:31:28.728Z,10.60
2023-04-19T04:33:55.632Z,10.50
2023-04-19T04:36:22.355Z,10.50
2023-04-19T04:38:49.294Z,10.50
2023-04-19T04:41:16.699Z,10.50
2023-04-19T04:43:43.581Z,10.50
2023-04-19T04:46:10.512Z,10.50
2023-04-19T04:48:37.364Z,10.50
2023-04-19T04:51:04.254Z,10.60
2023-04-19T04:53:31.074Z,10.60
2023-04-19T04:55:57.965Z,10.60
2023-04-19T04:58:24.798Z,10.50
2023-04-19T05:00:51.718Z,10.60
2023-04-19T05:03:18.586Z,10.60
2023-04-19T05:05:45.508Z,10.60
2023-04-19T05:08:12.442Z,10.70
2023-04-19T05:10:39.218Z,10.70
2023-04-19T05:13:05.877Z,10.70
2023-04-19T05:15:32.696Z,10.80
2023-04-19T05:17:59.699Z,10.80
2023-04-19T05:20:26.688Z,10.80
2023-04-19T05:23:01.450Z,10.80
2023-04-19T05:25:28.263Z,10.90
2023-04-19T05:27:55.017Z,10.90
2023-04-19T05:30:21.889Z,11.00
2023-04-19T05:32:48.735Z,11.00
2023-04-19T05:35:15.643Z,11.00
2023-04-19T05:37:42.419Z,11.10
2023-04-19T05:40:10.353Z,11.10
2023-04-19T05:42:38.132Z,11.10
2023-04-19T05:45:06.688Z,11.10
2023-04-19T05:47:33.815Z,11.20
2023-04-19T05:50:00.688Z,11.20
2023-04-19T05:52:27.524Z,11.20
2023-04-19T05:54:54.227Z,11.20
2023-04-19T05:57:20.967Z,11.20
2023-04-19T05:59:47.801Z,11.20
2023-04-19T06:02:14.842Z,11.30
2023-04-19T06:04:41.955Z,11.30
2023-04-19T06:07:17.788Z,11.40
2023-04-19T06:09:55.850Z,11.40
2023-04-19T06:12:22.752Z,11.50
2023-04-19T06:14:49.654Z,11.50
2023-04-19T06:17:17.020Z,11.60
2023-04-19T06:19:43.864Z,11.70
2023-04-19T06:22:10.683Z,11.80
2023-04-19T06:24:37.493Z,12.00
2023-04-19T06:27:04.336Z,12.00
2023-04-19T06:29:31.098Z,12.10
2023-04-19T06:31:58.001Z,12.20
2023-04-19T06:34:25.115Z,12.30
2023-04-19T06:36:51.973Z,12.30
2023-04-19T06:39:18.725Z,12.30
2023-04-19T06:41:45.835Z,12.40
2023-04-19T06:44:13.436Z,12.40
2023-04-19T06:46:40.306Z,12.40
2023-04-19T06:49:07.277Z,12.30
2023-04-19T06:51:34.159Z,12.30
2023-04-19T06:54:00.988Z,12.40
2023-04-19T06:56:47.445Z,12.40
2023-04-19T06:59:16.594Z,12.40
2023-04-19T07:01:44.295Z,12.40
2023-04-19T07:04:12.328Z,12.40
2023-04-19T07:06:39.888Z,12.30
2023-04-19T07:09:07.698Z,12.30
2023-04-19T07:11:34.818Z,12.30
2023-04-19T07:14:01.719Z,12.30
2023-04-19T07:16:28.839Z,12.30
2023-04-19T07:18:55.933Z,12.30
2023-04-19T07:21:24.837Z,12.40
2023-04-19T07:23:51.520Z,12.40
2023-04-19T07:26:18.460Z,12.50
2023-04-19T07:28:45.217Z,12.60
2023-04-19T07:31:16.713Z,12.50
2023-04-19T07:33:44.134Z,12.50
2023-04-19T07:36:11.576Z,12.40
2023-04-19T07:38:38.710Z,12.50
2023-04-19T07:41:06.597Z,12.50
2023-04-19T07:43:33.776Z,12.50
2023-04-19T07:46:00.744Z,12.50
2023-04-19T07:48:27.704Z,12.50
2023-04-19T07:50:54.583Z,12.50
2023-04-19T07:53:21.453Z,12.60
2023-04-19T07:55:48.193Z,12.70
2023-04-19T07:58:14.968Z,12.70
2023-04-19T08:00:41.707Z,12.70
2023-04-19T08:03:08.723Z,12.70
2023-04-19T08:05:35.772Z,12.70
2023-04-19T08:08:02.776Z,12.80
2023-04-19T08:10:30.945Z,12.90
2023-04-19T08:13:05.649Z,13.10
2023-04-19T08:18:07.381Z,13.10
2023-04-19T08:20:34.625Z,13.30
2023-04-19T08:23:10.519Z,13.40
2023-04-19T08:25:45.335Z,13.40
2023-04-19T08:28:12.712Z,13.60
2023-04-19T08:30:40.403Z,13.70
2023-04-19T08:33:07.165Z,13.90
2023-04-19T08:35:36.138Z,13.90
2023-04-19T08:38:04.470Z,13.90
2023-04-19T08:40:31.725Z,14.10
2023-04-19T08:42:58.895Z,14.30
2023-04-19T08:45:29.388Z,14.50
2023-04-19T08:48:01.181Z,14.60
2023-04-19T08:53:12.160Z,14.50
2023-04-19T08:56:06.992Z,14.60
2023-04-19T09:01:06.652Z,14.60
2023-04-19T09:03:41.210Z,14.80
2023-04-19T09:06:12.146Z,14.80
2023-04-19T09:08:41.077Z,14.80
2023-04-19T09:11:07.955Z,14.80
2023-04-19T09:13:38.324Z,14.90
2023-04-19T09:16:07.901Z,15.00
2023-04-19T09:19:08.520Z,15.00
2023-04-19T09:21:45.081Z,15.20
2023-04-19T09:24:12.032Z,15.30
2023-04-19T09:26:38.973Z,15.50
2023-04-19T09:29:06.788Z,15.60
2023-04-19T09:34:15.821Z,15.80
2023-04-19T09:36:42.919Z,16.00
2023-04-19T09:39:10.784Z,16.20
2023-04-19T09:41:53.877Z,16.40
2023-04-19T09:45:01.764Z,16.70
2023-04-19T09:47:29.984Z,16.90
2023-04-19T09:50:21.373Z,17.50
2023-04-19T09:52:51.038Z,17.50
2023-04-19T09:57:48.968Z,18.00
2023-04-19T10:00:16.294Z,18.20
2023-04-19T10:02:45.179Z,18.20
2023-04-19T10:05:20.284Z,18.00
2023-04-19T10:07:49.420Z,17.80
2023-04-19T10:10:20.679Z,18.00
2023-04-19T10:13:15.450Z,18.10
2023-04-19T10:15:50.576Z,18.40
2023-04-19T10:18:21.215Z,18.80
2023-04-19T10:21:06.606Z,19.40
2023-04-19T10:23:34.356Z,19.40
2023-04-19T10:26:01.127Z,19.70
2023-04-19T10:28:34.149Z,20.00
2023-04-19T10:31:03.286Z,20.60
2023-04-19T10:33:34.325Z,20.90
2023-04-19T10:36:01.514Z,21.00
2023-04-19T10:38:44.451Z,20.70
2023-04-19T10:41:18.474Z,20.50
2023-04-19T10:43:58.155Z,20.60
2023-04-19T10:46:26.256Z,20.50
2023-04-19T10:49:00.722Z,20.50
2023-04-19T10:51:28.470Z,20.80
2023-04-19T10:54:08.386Z,20.70
2023-04-19T10:56:35.334Z,20.60
2023-04-19T11:23:24.392Z,19.70
2023-04-19T11:25:52.829Z,19.80
2023-04-19T11:28:21.593Z,19.60
2023-04-19T11:30:49.876Z,19.60
2023-04-19T11:33:24.662Z,19.50
2023-04-19T11:35:51.526Z,20.00
2023-04-19T11:38:18.355Z,20.50
2023-04-19T11:40:45.260Z,20.70
2023-04-19T11:43:12.142Z,20.90
2023-04-19T11:45:43.948Z,20.70
2023-04-19T11:48:24.037Z,21.00
2023-04-19T11:50:50.897Z,21.10
2023-04-19T11:53:18.742Z,20.80
2023-04-19T11:55:51.493Z,20.10
2023-04-19T11:58:33.527Z,20.10
2023-04-19T12:01:12.681Z,20.00
2023-04-19T12:03:50.220Z,20.70
2023-04-19T12:06:22.232Z,21.00
2023-04-19T12:08:51.275Z,21.30
2023-04-19T12:11:21.628Z,21.00
2023-04-19T12:13:49.144Z,20.40
2023-04-19T12:16:27.927Z,20.40
2023-04-19T12:18:54.669Z,20.40
2023-04-19T12:21:32.466Z,20.20
2023-04-19T12:24:05.454Z,20.30
2023-04-19T12:26:32.573Z,20.70
2023-04-19T12:29:01.074Z,20.60
2023-04-19T12:31:28.018Z,21.00
2023-04-19T12:33:56.249Z,21.40
2023-04-19T12:36:25.619Z,21.40
2023-04-19T12:38:52.422Z,21.50
2023-04-19T12:41:19.425Z,21.60
2023-04-19T12:43:46.370Z,21.20
2023-04-19T12:46:13.142Z,21.50
2023-04-19T12:48:39.963Z,22.00
2023-04-19T12:51:06.714Z,22.20
2023-04-19T12:53:33.502Z,22.40
2023-04-19T12:56:05.679Z,22.90
2023-04-19T12:58:32.482Z,23.30
2023-04-19T13:01:00.166Z,23.30
2023-04-19T13:03:27.324Z,23.30
2023-04-19T13:05:54.383Z,23.40
2023-04-19T13:08:28.113Z,23.50
2023-04-19T13:11:00.658Z,23.80
2023-04-19T13:13:27.362Z,24.30
2023-04-19T13:15:54.119Z,23.80
2023-04-19T13:18:22.279Z,24.50
2023-04-19T13:20:50.559Z,25.10
2023-04-19T13:23:17.304Z,25.30
2023-04-19T13:25:44.059Z,25.30
2023-04-19T13:28:10.853Z,25.30
2023-04-19T13:30:37.653Z,25.20
2023-04-19T13:33:06.108Z,25.70
2023-04-19T13:35:34.197Z,26.10
2023-04-19T13:38:00.939Z,26.40
2023-04-19T13:40:27.642Z,26.10
2023-04-19T13:42:56.738Z,26.20
2023-04-19T13:45:23.451Z,26.60
2023-04-19T13:48:51.459Z,26.60
2023-04-19T13:59:09.592Z,26.50
2023-04-19T14:01:37.069Z,25.70
2023-04-19T14:04:04.397Z,25.30
2023-04-19T14:06:32.235Z,25.60
2023-04-19T14:08:59.151Z,25.50
2023-04-19T14:11:26.381Z,25.20
2023-04-19T14:13:53.629Z,25.00
2023-04-19T14:16:24.241Z,25.00
2023-04-19T14:18:51.893Z,25.30
2023-04-19T14:21:19.240Z,25.20
2023-04-19T14:23:46.272Z,25.60
2023-04-19T14:26:13.493Z,25.90
2023-04-19T14:28:40.496Z,25.40
2023-04-19T14:31:07.402Z,25.10
2023-04-19T14:33:34.427Z,24.80
2023-04-19T14:36:01.630Z,25.20
2023-04-19T14:38:28.624Z,25.00
2023-04-19T14:40:56.289Z,25.20
2023-04-19T14:43:23.235Z,25.50
2023-04-19T14:45:50.176Z,25.40
2023-04-19T14:48:17.108Z,25.30
2023-04-19T14:50:44.063Z,25.00
2023-04-19T14:53:10.886Z,25.00
2023-04-19T14:55:38.277Z,25.40
2023-04-19T14:58:05.779Z,25.70
2023-04-19T15:00:33.298Z,25.20
2023-04-19T15:03:01.376Z,25.40
2023-04-19T15:05:28.619Z,25.10
2023-04-19T15:07:55.609Z,24.60
2023-04-19T15:10:22.440Z,24.60
2023-04-19T15:12:49.159Z,24.90
2023-04-19T15:15:16.213Z,25.10
2023-04-19T15:17:43.287Z,24.90
2023-04-19T15:20:10.565Z,24.40
2023-04-19T15:22:37.440Z,24.20
2023-04-19T15:25:04.620Z,23.90
2023-04-19T15:27:31.522Z,23.40
2023-04-19T15:29:58.324Z,23.20
2023-04-19T15:32:25.216Z,23.40
2023-04-19T15:34:52.106Z,23.70
2023-04-19T15:37:18.942Z,24.00
2023-04-19T15:39:45.771Z,24.00
2023-04-19T15:42:12.816Z,23.90
2023-04-19T15:44:40.268Z,23.80
2023-04-19T15:47:07.823Z,23.80
2023-04-19T15:49:34.565Z,24.00
2023-04-19T15:52:01.465Z,24.00
2023-04-19T15:54:28.896Z,23.80
2023-04-19T15:56:56.041Z,23.60
2023-04-19T15:59:22.888Z,23.30
2023-04-19T16:01:49.732Z,23.50
2023-04-19T16:04:16.872Z,23.40
2023-04-19T16:06:43.825Z,22.60
2023-04-19T16:09:10.713Z,22.40
2023-04-19T16:11:39.102Z,21.80
2023-04-19T16:14:05.947Z,22.20
2023-04-19T16:16:34.354Z,22.20
2023-04-19T16:19:01.355Z,21.40
2023-04-19T16:21:28.895Z,21.50
2023-04-19T16:23:56.192Z,21.30
2023-04-19T16:26:23.544Z,20.90
2023-04-19T16:28:50.499Z,20.80
2023-04-19T16:31:17.455Z,20.20
2023-04-19T16:33:44.800Z,19.40
2023-04-19T16:36:11.678Z,19.10
2023-04-19T16:38:38.423Z,18.80
2023-04-19T16:41:05.868Z,18.80
2023-04-19T16:43:32.961Z,19.00
2023-04-19T16:45:59.801Z,18.80
2023-04-19T16:48:27.127Z,18.50
2023-04-19T16:50:54.035Z,18.40
2023-04-19T16:53:21.039Z,18.30
2023-04-19T16:55:47.961Z,18.00
2023-04-19T16:58:15.050Z,17.70
2023-04-19T17:00:41.876Z,17.40
2023-04-19T17:03:11.958Z,17.10
2023-04-19T17:05:38.935Z,16.80
2023-04-19T17:08:05.870Z,16.50
2023-04-19T17:10:32.639Z,16.50
2023-04-19T17:12:59.536Z,16.30
2023-04-19T17:15:26.739Z,16.20
2023-04-19T17:17:53.562Z,16.00
2023-04-19T17:20:20.461Z,15.90
2023-04-19T17:22:47.299Z,15.90
2023-04-19T17:25:14.505Z,15.80
2023-04-19T17:27:41.546Z,15.80
2023-04-19T17:30:08.844Z,15.60
2023-04-19T17:32:35.874Z,15.80
2023-04-19T17:35:04.112Z,15.80
2023-04-19T17:37:31.349Z,15.60
2023-04-19T17:39:58.242Z,15.60
2023-04-19T17:42:26.028Z,15.40
2023-04-19T17:44:53.198Z,15.30
2023-04-19T17:47:20.578Z,14.90
2023-04-19T17:49:47.702Z,14.80
2023-04-19T17:52:14.569Z,14.60
2023-04-19T17:54:41.308Z,14.50
2023-04-19T17:57:08.195Z,14.40
2023-04-19T17:59:35.242Z,14.30
2023-04-19T18:02:02.522Z,14.30
2023-04-19T18:04:30.980Z,14.30
2023-04-19T18:06:57.879Z,14.30
2023-04-19T18:09:24.638Z,14.20
2023-04-19T18:11:51.494Z,14.10
2023-04-19T18:14:18.319Z,14.10
2023-04-19T18:16:45.229Z,14.00
2023-04-19T18:19:12.128Z,13.90
2023-04-19T18:21:38.988Z,13.90
2023-04-19T18:24:06.379Z,13.70
2023-04-19T18:26:38.238Z,13.70
2023-04-19T18:29:05.256Z,13.60
2023-04-19T18:31:32.150Z,13.60
2023-04-19T18:34:00.443Z,13.60
2023-04-19T18:36:28.708Z,13.50
2023-04-19T18:38:55.967Z,13.40
2023-04-19T18:41:22.833Z,13.20
2023-04-19T18:44:12.825Z,13.20
2023-04-19T18:46:36.487Z,13.10
2023-04-19T18:49:03.259Z,13.00
2023-04-19T18:51:30.172Z,13.00
2023-04-19T18:53:57.045Z,12.90
2023-04-19T18:56:54.203Z,12.90
2023-04-19T19:23:53.693Z,12.10
2023-04-19T19:26:20.599Z,12.00
2023-04-19T19:28:47.427Z,11.90
2023-04-19T19:31:14.390Z,11.90
2023-04-19T19:33:41.240Z,11.90
2023-04-19T19:36:08.009Z,11.80
2023-04-19T19:38:37.908Z,11.70
2023-04-19T19:41:55.147Z,11.70
2023-04-19T19:43:54.458Z,11.70
2023-04-19T19:46:24.300Z,11.50
2023-04-19T19:48:53.793Z,11.50
2023-04-19T19:51:52.391Z,11.40
2023-04-19T19:54:11.516Z,11.30
2023-04-19T19:56:48.121Z,11.30
2023-04-19T20:29:07.897Z,10.70
2023-04-19T20:31:34.692Z,10.60
2023-04-19T20:34:01.440Z,10.50
2023-04-19T20:36:28.321Z,10.50
2023-04-19T20:38:56.958Z,10.40
2023-04-19T20:41:23.800Z,10.40
2023-04-19T20:43:50.658Z,10.30
2023-04-19T20:46:17.692Z,10.30
2023-04-19T20:48:44.563Z,10.30
2023-04-19T20:51:12.717Z,10.30
2023-04-19T20:53:39.600Z,10.20
2023-04-19T20:56:07.410Z,10.30
2023-04-19T21:24:26.328Z,9.80
2023-04-19T21:26:53.240Z,9.80
2023-04-19T21:29:20.898Z,9.70
2023-04-19T21:31:48.006Z,9.70
2023-04-19T21:34:19.519Z,9.70
2023-04-19T21:36:46.273Z,9.60
2023-04-19T21:39:13.034Z,9.60
2023-04-19T21:41:39.798Z,9.60
